createdAt,value
2022-11-17T00:00:25.900Z,99007.25
2022-11-17T00:05:27.911Z,99008.84
2022-11-17T00:10:29.533Z,99000.41
2022-11-17T00:15:31.196Z,99003.53
2022-11-17T00:20:51.517Z,98996.09
2022-11-17T00:25:53.117Z,99006.53
2022-11-17T00:31:13.120Z,99001.34
2022-11-17T00:36:15.015Z,98997.16
2022-11-17T00:41:16.631Z,98999.41
2022-11-17T00:46:18.213Z,99004.06
2022-11-17T00:51:20.146Z,98983.81
2022-11-17T00:56:22.081Z,98980.47
2022-11-17T01:01:24.507Z,98986.34
2022-11-17T01:06:26.304Z,98985.50
2022-11-17T01:11:28.488Z,98990.31
2022-11-17T01:16:31.364Z,98984.97
2022-11-17T01:21:33.009Z,98986.78
2022-11-17T01:26:36.392Z,98984.81
2022-11-17T01:31:41.161Z,98980.59
2022-11-17T01:37:02.244Z,98974.56
2022-11-17T01:42:19.304Z,98965.88
2022-11-17T01:47:26.345Z,98968.69
2022-11-17T01:52:28.634Z,98967.56
2022-11-17T01:57:36.976Z,98964.03
2022-11-17T02:02:39.727Z,98964.44
2022-11-17T02:07:42.645Z,98956.88
2022-11-17T02:12:45.050Z,98955.03
2022-11-17T02:17:46.869Z,98935.91
2022-11-17T02:23:16.539Z,98942.94
2022-11-17T02:28:28.206Z,98945.75
2022-11-17T02:34:11.413Z,98941.25
2022-11-17T02:39:41.627Z,98935.22
2022-11-17T02:44:55.987Z,98942.38
2022-11-17T02:50:01.868Z,98937.75
2022-11-17T02:55:06.929Z,98937.03
2022-11-17T03:00:19.573Z,98945.06
2022-11-17T03:05:51.993Z,98935.06
2022-11-17T03:11:02.898Z,98933.53
2022-11-17T03:16:16.630Z,98917.13
2022-11-17T03:21:22.305Z,98922.59
2022-11-17T03:26:29.484Z,98925.28
2022-11-17T03:31:31.551Z,98925.28
2022-11-17T03:36:35.747Z,98917.25
2022-11-17T03:41:42.347Z,98916.56
2022-11-17T03:46:44.701Z,98914.75
2022-11-17T03:51:46.604Z,98923.59
2022-11-17T03:56:59.405Z,98921.59
2022-11-17T04:02:01.058Z,98920.78
2022-11-17T04:07:02.764Z,98910.25
2022-11-17T04:12:23.209Z,98908.56
2022-11-17T04:17:24.835Z,98904.91
2022-11-17T04:22:26.532Z,98895.22
2022-11-17T04:27:46.743Z,98896.88
2022-11-17T04:32:48.509Z,98900.53
2022-11-17T04:37:50.164Z,98896.03
2022-11-17T04:42:51.765Z,98890.41
2022-11-17T04:47:53.426Z,98888.44
2022-11-17T04:52:55.022Z,98885.06
2022-11-17T04:57:56.662Z,98877.91
2022-11-17T05:02:58.341Z,98877.59
2022-11-17T05:08:00.089Z,98880.13
2022-11-17T05:13:20.420Z,98877.75
2022-11-17T05:18:21.995Z,98874.25
2022-11-17T05:23:42.303Z,98858.06
2022-11-17T05:28:43.951Z,98854.72
2022-11-17T05:33:45.615Z,98855.84
2022-11-17T05:38:48.450Z,98853.19
2022-11-17T05:43:50.579Z,98848.53
2022-11-17T05:48:53.124Z,98848.22
2022-11-17T05:53:54.782Z,98849.91
2022-11-17T05:59:27.873Z,98854.13
2022-11-17T06:04:30.633Z,98867.72
2022-11-17T06:09:34.292Z,98857.44
2022-11-17T06:14:37.803Z,98863.78
2022-11-17T06:19:42.622Z,98861.25
2022-11-17T06:24:44.955Z,98858.16
2022-11-17T06:29:47.120Z,98853.50
2022-11-17T06:34:55.179Z,98849.28
2022-11-17T06:39:57.853Z,98860.50
2022-11-17T06:44:59.487Z,98860.22
2022-11-17T06:50:01.166Z,98849.53
2022-11-17T06:55:02.945Z,98836.03
2022-11-17T07:00:06.275Z,98838.53
2022-11-17T07:05:08.248Z,98826.03
2022-11-17T07:10:10.291Z,98832.91
2022-11-17T07:15:11.917Z,98835.13
2022-11-17T07:20:13.978Z,98844.50
2022-11-17T07:25:21.064Z,98834.34
2022-11-17T07:30:23.998Z,98836.59
2022-11-17T07:35:25.683Z,98831.53
2022-11-17T07:40:30.739Z,98826.34
2022-11-17T07:45:32.564Z,98829.53
2022-11-17T07:50:35.044Z,98835.75
2022-11-17T07:55:36.651Z,98841.50
2022-11-17T08:00:38.448Z,98842.09
2022-11-17T08:05:43.703Z,98837.28
2022-11-17T08:10:45.652Z,98831.63
2022-11-17T08:15:47.329Z,98834.97
2022-11-17T08:20:49.083Z,98827.84
2022-11-17T08:25:50.742Z,98826.41
2022-11-17T08:30:52.345Z,98823.25
2022-11-17T08:35:58.253Z,98830.28
2022-11-17T08:41:02.968Z,98821.78
2022-11-17T08:46:04.880Z,98816.28
2022-11-17T08:51:08.161Z,98825.84
2022-11-17T08:56:11.659Z,98821.56
2022-11-17T09:01:18.347Z,98826.44
2022-11-17T09:06:20.227Z,98823.81
2022-11-17T09:11:22.107Z,98840.69
2022-11-17T09:16:25.416Z,98855.25
2022-11-17T09:21:27.346Z,98850.56
2022-11-17T09:26:28.981Z,98836.34
2022-11-17T09:31:30.908Z,98834.19
2022-11-17T09:36:33.093Z,98838.06
2022-11-17T09:41:41.471Z,98830.03
2022-11-17T09:46:54.997Z,98826.91
2022-11-17T09:51:58.550Z,98830.44
2022-11-17T09:57:01.012Z,98826.25
2022-11-17T10:02:02.836Z,98825.25
2022-11-17T10:07:04.749Z,98820.59
2022-11-17T10:12:27.763Z,98820.09
2022-11-17T10:17:29.603Z,98810.06
2022-11-17T10:22:36.285Z,98803.72
2022-11-17T10:27:44.258Z,98803.28
2022-11-17T10:32:57.167Z,98795.91
2022-11-17T10:38:00.768Z,98770.50
2022-11-17T10:43:14.585Z,98764.88
2022-11-17T10:48:25.012Z,98766.50
2022-11-17T10:53:30.280Z,98760.28
2022-11-17T10:58:33.612Z,98765.13
2022-11-17T11:03:36.092Z,98763.44
2022-11-17T11:08:56.363Z,98768.63
2022-11-17T11:14:01.408Z,98761.75
2022-11-17T11:19:03.100Z,98769.78
2022-11-17T11:24:07.707Z,98768.81
2022-11-17T11:29:23.129Z,98767.47
2022-11-17T11:34:52.964Z,98766.13
2022-11-17T11:40:15.588Z,98751.09
2022-11-17T11:45:43.348Z,98736.75
2022-11-17T11:50:58.240Z,98728.06
2022-11-17T11:56:10.785Z,98720.03
2022-11-17T12:01:13.417Z,98732.94
2022-11-17T12:06:36.795Z,98729.47
2022-11-17T12:11:59.090Z,98724.56
2022-11-17T12:17:23.387Z,98717.69
2022-11-17T12:22:33.911Z,98710.00
2022-11-17T12:27:35.613Z,98722.53
2022-11-17T12:32:49.159Z,98712.97
2022-11-17T12:38:23.220Z,98700.88
2022-11-17T12:43:26.510Z,98714.22
2022-11-17T12:48:36.229Z,98714.19
2022-11-17T12:53:39.453Z,98704.44
2022-11-17T12:58:59.959Z,98699.75
2022-11-17T13:04:01.604Z,98691.88
2022-11-17T13:09:11.999Z,98692.53
2022-11-17T13:14:16.204Z,98691.69
2022-11-17T13:19:30.390Z,98705.56
2022-11-17T13:24:35.251Z,98692.03
2022-11-17T13:29:37.838Z,98688.69
2022-11-17T13:34:49.834Z,98691.00
2022-11-17T13:40:02.558Z,98688.66
2022-11-17T13:45:05.270Z,98683.09
2022-11-17T13:50:31.882Z,98685.09
2022-11-17T13:55:34.107Z,98689.63
2022-11-17T14:00:35.870Z,98690.47
2022-11-17T14:05:37.471Z,98685.63
2022-11-17T14:10:39.735Z,98694.66
2022-11-17T14:15:42.295Z,98690.13
2022-11-17T14:20:43.927Z,98690.97
2022-11-17T14:25:50.264Z,98694.66
2022-11-17T14:30:54.050Z,98694.50
2022-11-17T14:35:58.463Z,98688.63
2022-11-17T14:41:00.211Z,98681.44
2022-11-17T14:46:02.846Z,98684.94
2022-11-17T14:51:04.577Z,98678.44
2022-11-17T14:56:09.970Z,98680.94
2022-11-17T15:01:15.581Z,98679.28
2022-11-17T15:06:20.165Z,98682.25
2022-11-17T15:11:22.125Z,98690.97
2022-11-17T15:16:23.771Z,98686.31
2022-11-17T15:21:25.879Z,98689.66
2022-11-17T15:26:27.601Z,98694.84
2022-11-17T15:31:29.787Z,98699.34
2022-11-17T15:36:32.069Z,98692.31
2022-11-17T15:41:33.749Z,98696.69
2022-11-17T15:46:35.799Z,98698.69
2022-11-17T15:51:37.534Z,98702.72
2022-11-17T15:56:39.210Z,98687.66
2022-11-17T16:01:41.132Z,98687.66
2022-11-17T16:06:44.595Z,98696.69
2022-11-17T16:11:46.446Z,98680.78
2022-11-17T16:16:48.247Z,98684.47
2022-11-17T16:21:50.059Z,98682.25
2022-11-17T16:26:51.893Z,98684.25
2022-11-17T16:31:55.320Z,98681.75
2022-11-17T16:36:56.980Z,98685.59
2022-11-17T16:42:00.198Z,98679.72
2022-11-17T16:47:01.863Z,98683.53
2022-11-17T16:52:03.501Z,98677.13
2022-11-17T16:57:05.153Z,98673.63
2022-11-17T17:02:06.795Z,98674.94
2022-11-17T17:07:08.482Z,98672.44
2022-11-17T17:12:10.470Z,98670.28
2022-11-17T17:17:12.166Z,98676.47
2022-11-17T17:22:13.761Z,98673.78
2022-11-17T17:27:15.630Z,98667.59
2022-11-17T17:32:17.274Z,98667.44
2022-11-17T17:37:18.960Z,98669.47
2022-11-17T17:42:20.569Z,98669.47
2022-11-17T17:47:23.237Z,98672.16
2022-11-17T17:52:24.895Z,98680.06
2022-11-17T17:57:29.873Z,98673.06
2022-11-17T18:02:34.615Z,98671.53
2022-11-17T18:07:36.300Z,98663.50
2022-11-17T18:12:38.056Z,98674.22
2022-11-17T18:17:39.742Z,98684.34
2022-11-17T18:22:41.383Z,98662.75
2022-11-17T18:27:43.320Z,98673.44
2022-11-17T18:32:45.018Z,98666.72
2022-11-17T18:37:46.615Z,98678.22
2022-11-17T18:42:48.253Z,98678.06
2022-11-17T18:47:49.902Z,98669.19
2022-11-17T18:52:52.082Z,98666.47
2022-11-17T18:57:53.731Z,98661.44
2022-11-17T19:02:55.413Z,98658.09
2022-11-17T19:07:57.361Z,98657.25
2022-11-17T19:12:58.989Z,98671.31
2022-11-17T19:18:00.626Z,98662.75
2022-11-17T19:23:02.448Z,98669.41
2022-11-17T19:28:04.775Z,98665.91
2022-11-17T19:33:06.448Z,98670.63
2022-11-17T19:38:08.059Z,98671.13
2022-11-17T19:43:09.690Z,98681.69
2022-11-17T19:48:11.297Z,98695.25
2022-11-17T19:53:12.993Z,98683.56
2022-11-17T19:58:16.674Z,98680.72
2022-11-17T20:03:18.730Z,98678.38
2022-11-17T20:08:20.412Z,98674.03
2022-11-17T20:13:22.046Z,98678.69
2022-11-17T20:18:23.674Z,98676.00
2022-11-17T20:23:25.398Z,98683.72
2022-11-17T20:28:27.273Z,98690.41
2022-11-17T20:33:30.061Z,98686.59
2022-11-17T20:38:32.912Z,98680.09
2022-11-17T20:43:35.121Z,98681.09
2022-11-17T20:48:36.806Z,98679.25
2022-11-17T20:53:39.500Z,98658.53
2022-11-17T20:58:41.111Z,98680.59
2022-11-17T21:03:42.947Z,98678.09
2022-11-17T21:08:45.468Z,98672.59
2022-11-17T21:13:47.150Z,98669.75
2022-11-17T21:18:48.982Z,98683.47
2022-11-17T21:23:54.047Z,98688.34
2022-11-17T21:28:57.636Z,98696.06
2022-11-17T21:34:04.453Z,98682.69
2022-11-17T21:39:06.085Z,98683.84
2022-11-17T21:44:07.700Z,98670.47
2022-11-17T21:49:09.416Z,98673.88
2022-11-17T21:54:11.088Z,98667.03
2022-11-17T21:59:13.344Z,98676.72
2022-11-17T22:04:15.854Z,98683.91
2022-11-17T22:09:17.694Z,98690.41
2022-11-17T22:14:20.288Z,98695.91
2022-11-17T22:19:24.162Z,98710.28
2022-11-17T22:24:25.985Z,98710.44
2022-11-17T22:29:27.914Z,98710.44
2022-11-17T22:34:29.582Z,98705.91
2022-11-17T22:39:31.203Z,98704.25
2022-11-17T22:44:32.835Z,98691.72
2022-11-17T22:49:34.459Z,98708.91
2022-11-17T22:54:36.118Z,98715.25
2022-11-17T22:59:37.810Z,98702.22
2022-11-17T23:04:39.539Z,98704.88
2022-11-17T23:09:41.140Z,98711.59
2022-11-17T23:14:42.749Z,98701.56
2022-11-17T23:19:44.406Z,98692.38
2022-11-17T23:24:46.088Z,98716.34
2022-11-17T23:29:47.805Z,98718.00
2022-11-17T23:34:49.417Z,98716.00
2022-11-17T23:39:51.047Z,98722.88
2022-11-17T23:44:52.721Z,98735.09
2022-11-17T23:49:54.346Z,98736.63
2022-11-17T23:54:55.960Z,98742.50
2022-11-17T23:59:57.570Z,98727.28
